Time;durP1;ratioP1;P1;durP2;ratioP2;P2;SDS_P1;SDS_P2;PMS_P1;PMS_P2;Temp;Humidity;BMP_temperature;BMP_pressure;BME280_temperature;BME280_humidity;BME280_pressure;Samples;Min_cycle;Max_cycle;Signal;HPM_P1;HPM_P2
2022/06/21 04:00:21;;;;;;;3.47;2.80;;;15.40;99.90;;;;;;6044565;23;21256;-68
2022/06/21 04:02:55;;;;;;;2.80;2.70;;;15.40;99.90;;;;;;5013286;28;20934;-68
2022/06/21 04:05:29;;;;;;;2.40;2.30;;;15.50;99.90;;;;;;5014070;28;20444;-68
2022/06/21 04:08:01;;;;;;;2.50;2.30;;;15.60;99.90;;;;;;5013513;28;20908;-69
2022/06/21 04:10:34;;;;;;;2.93;2.40;;;15.60;99.90;;;;;;5013476;28;20507;-68
2022/06/21 04:13:06;;;;;;;4.30;2.30;;;15.70;99.90;;;;;;5013481;28;20449;-68
2022/06/21 04:15:44;;;;;;;2.73;2.47;;;15.80;99.90;;;;;;5013824;28;20472;-70
2022/06/21 04:18:18;;;;;;;4.10;2.20;;;15.90;99.90;;;;;;5013871;28;20503;-68
2022/06/21 04:20:51;;;;;;;2.20;2.00;;;16.00;99.90;;;;;;5013485;28;20476;-68
2022/06/21 04:23:24;;;;;;;2.20;2.10;;;16.10;99.90;;;;;;5013520;28;20444;-69
2022/06/21 04:25:56;;;;;;;2.40;2.20;;;16.10;99.90;;;;;;5013520;28;20443;-69
2022/06/21 04:28:26;;;;;;;2.27;2.03;;;16.20;99.90;;;;;;5013577;28;20441;-69
2022/06/21 04:30:59;;;;;;;1.90;1.80;;;16.20;99.90;;;;;;5013242;28;20481;-68
2022/06/21 04:33:30;;;;;;;2.77;2.50;;;16.30;99.90;;;;;;5013213;28;20912;-69
2022/06/21 04:36:01;;;;;;;2.37;2.17;;;16.30;99.90;;;;;;5013441;28;20444;-69
2022/06/21 04:38:32;;;;;;;2.50;2.10;;;16.30;99.90;;;;;;5015532;28;20444;-70
2022/06/21 04:41:05;;;;;;;2.57;2.03;;;16.40;99.90;;;;;;5016674;28;20556;-70
2022/06/21 04:43:40;;;;;;;2.40;2.17;;;16.50;99.90;;;;;;5017034;28;20441;-69
2022/06/21 04:46:14;;;;;;;3.77;2.40;;;16.60;99.90;;;;;;5016849;28;20436;-69
2022/06/21 04:48:46;;;;;;;3.23;2.20;;;16.60;99.90;;;;;;5016881;28;20441;-69
2022/06/21 04:51:17;;;;;;;5.73;3.50;;;16.60;99.90;;;;;;5016852;28;20487;-69
2022/06/21 04:53:53;;;;;;;3.23;2.30;;;16.70;99.90;;;;;;5016815;28;20444;-69
2022/06/21 04:56:31;;;;;;;2.63;2.40;;;16.80;99.90;;;;;;5016741;28;20571;-69
2022/06/21 04:58:58;;;;;;;3.13;3.00;;;16.90;99.90;;;;;;5016997;28;20448;-69
2022/06/21 05:01:37;;;;;;;2.53;2.33;;;17.00;99.90;;;;;;5016343;28;21049;-70
2022/06/21 05:04:08;;;;;;;2.87;2.63;;;17.30;99.90;;;;;;5016701;28;20451;-70
2022/06/21 05:06:36;;;;;;;4.07;2.47;;;17.60;99.90;;;;;;5016637;28;20437;-69
2022/06/21 05:09:03;;;;;;;3.53;2.50;;;17.80;99.90;;;;;;5016481;28;20453;-69
2022/06/21 05:11:30;;;;;;;3.80;2.73;;;18.00;99.90;;;;;;5016573;28;20524;-70
2022/06/21 05:14:00;;;;;;;3.93;2.70;;;18.20;99.90;;;;;;5016659;28;20457;-69
2022/06/21 05:16:32;;;;;;;2.67;2.47;;;18.20;99.90;;;;;;5024238;28;20467;-70
2022/06/21 05:19:06;;;;;;;2.80;2.20;;;18.20;99.90;;;;;;5032239;28;20433;-70
2022/06/21 05:21:35;;;;;;;3.00;2.23;;;18.20;99.90;;;;;;5016942;28;20473;-69
2022/06/21 05:24:03;;;;;;;5.03;2.60;;;18.20;99.90;;;;;;5016488;28;20461;-71
2022/06/21 05:26:39;;;;;;;3.97;2.60;;;18.10;99.90;;;;;;5019669;28;20465;-70
2022/06/21 05:29:12;;;;;;;5.30;3.20;;;18.10;99.90;;;;;;5023519;28;20829;-70
2022/06/21 05:31:45;;;;;;;2.33;2.23;;;18.10;99.90;;;;;;5022487;28;20469;-69
2022/06/21 05:34:16;;;;;;;2.53;2.30;;;18.10;99.90;;;;;;5021776;28;20441;-70
2022/06/21 05:36:56;;;;;;;4.97;2.63;;;18.10;99.90;;;;;;5019016;28;20445;-70
2022/06/21 05:39:26;;;;;;;3.10;2.57;;;18.10;99.90;;;;;;5017001;28;20507;-70
2022/06/21 05:41:57;;;;;;;2.80;2.60;;;18.10;99.90;;;;;;5015557;28;20480;-70
2022/06/21 05:44:32;;;;;;;4.90;3.03;;;18.10;99.90;;;;;;5015682;28;20445;-71
2022/06/21 05:47:07;;;;;;;2.63;2.43;;;18.20;99.90;;;;;;5015690;28;20444;-71
2022/06/21 05:49:36;;;;;;;4.50;2.70;;;18.20;99.90;;;;;;5015447;28;20437;-70
2022/06/21 05:52:06;;;;;;;4.20;2.50;;;18.40;99.90;;;;;;5015501;28;20480;-69
2022/06/21 05:54:38;;;;;;;3.40;2.47;;;18.70;99.90;;;;;;5015244;28;20947;-69
2022/06/21 05:57:09;;;;;;;2.90;2.40;;;18.90;99.90;;;;;;5015561;28;20444;-69
2022/06/21 05:59:36;;;;;;;5.00;2.77;;;19.20;99.90;;;;;;5015461;28;20469;-69
2022/06/21 06:02:10;;;;;;;2.53;2.33;;;19.50;99.90;;;;;;5014991;28;20481;-69
2022/06/21 06:04:42;;;;;;;3.63;2.97;;;19.70;99.90;;;;;;5015062;28;20437;-69
2022/06/21 06:07:13;;;;;;;6.00;2.27;;;20.00;99.90;;;;;;5015299;28;20441;-69
2022/06/21 06:09:44;;;;;;;5.13;2.37;;;20.20;98.50;;;;;;5015160;28;20446;-69
2022/06/21 06:12:17;;;;;;;3.70;2.50;;;20.20;97.60;;;;;;5014840;28;20484;-69
2022/06/21 06:14:49;;;;;;;5.33;2.23;;;20.10;95.40;;;;;;5015920;28;20441;-69
2022/06/21 06:17:26;;;;;;;7.13;2.57;;;19.90;95.40;;;;;;5015189;28;20548;-69
2022/06/21 06:20:02;;;;;;;2.70;2.50;;;19.70;94.90;;;;;;5014949;28;20456;-69
2022/06/21 06:22:38;;;;;;;4.80;2.70;;;19.60;95.10;;;;;;5015001;28;20583;-69
2022/06/21 06:25:16;;;;;;;3.70;2.30;;;19.50;94.70;;;;;;5015001;28;20441;-69
2022/06/21 06:27:54;;;;;;;9.00;2.30;;;19.50;95.10;;;;;;5014526;28;20448;-69
2022/06/21 06:30:25;;;;;;;4.73;2.63;;;19.50;95.20;;;;;;5014660;28;20461;-68
2022/06/21 06:33:02;;;;;;;4.70;2.80;;;19.50;94.70;;;;;;5015260;28;20446;-69
2022/06/21 06:35:29;;;;;;;2.70;2.30;;;19.40;93.80;;;;;;5014561;28;20797;-69
2022/06/21 06:37:56;;;;;;;4.90;2.73;;;19.50;94.80;;;;;;5014681;28;20492;-69
2022/06/21 06:40:28;;;;;;;2.70;2.10;;;19.60;94.90;;;;;;5014652;28;20453;-68
2022/06/21 06:42:59;;;;;;;3.80;2.20;;;19.80;94.80;;;;;;5014594;28;20495;-68
2022/06/21 06:45:31;;;;;;;3.30;2.10;;;20.10;94.50;;;;;;5014573;28;20437;-68
2022/06/21 06:48:03;;;;;;;2.30;2.10;;;20.40;93.00;;;;;;5014215;28;20920;-69
2022/06/21 06:50:37;;;;;;;2.33;2.10;;;20.60;92.10;;;;;;5014322;28;20529;-69
2022/06/21 06:53:11;;;;;;;2.27;2.07;;;20.90;91.80;;;;;;5014215;28;20442;-69
2022/06/21 06:55:44;;;;;;;2.83;1.90;;;21.20;92.10;;;;;;5014838;28;20437;-69
2022/06/21 06:58:19;;;;;;;2.87;1.77;;;21.40;91.60;;;;;;5014323;28;20540;-69
2022/06/21 07:00:49;;;;;;;5.87;2.00;;;21.70;91.30;;;;;;5013541;28;20515;-69
2022/06/21 07:03:21;;;;;;;4.20;2.13;;;22.20;90.50;;;;;;5014375;28;20512;-69
2022/06/21 07:05:52;;;;;;;5.80;2.73;;;22.50;89.70;;;;;;5014321;28;20496;-69
2022/06/21 07:08:27;;;;;;;2.60;2.17;;;23.00;87.10;;;;;;5014262;28;20920;-70
2022/06/21 07:10:57;;;;;;;2.20;2.00;;;23.60;84.30;;;;;;5014315;28;20491;-69
2022/06/21 07:13:24;;;;;;;5.40;2.40;;;24.10;81.60;;;;;;5013991;28;20915;-69
2022/06/21 07:15:55;;;;;;;3.77;1.67;;;24.50;79.50;;;;;;5014490;28;20519;-69
2022/06/21 07:18:28;;;;;;;6.43;2.10;;;24.60;77.30;;;;;;5014499;28;20441;-66
2022/06/21 07:20:56;;;;;;;3.60;2.73;;;25.10;74.80;;;;;;5014955;28;20472;-69
2022/06/21 07:23:25;;;;;;;2.07;1.87;;;25.30;72.70;;;;;;5014383;28;20467;-65
2022/06/21 07:25:55;;;;;;;3.90;1.90;;;25.50;73.20;;;;;;5013955;28;20963;-70
2022/06/21 07:28:27;;;;;;;1.80;1.70;;;25.90;70.00;;;;;;5014073;28;20452;-70
2022/06/21 07:30:58;;;;;;;3.73;1.80;;;26.30;69.40;;;;;;5014161;28;20488;-66
2022/06/21 07:33:32;;;;;;;2.67;1.53;;;26.60;67.00;;;;;;5013723;28;20433;-67
2022/06/21 07:36:05;;;;;;;2.70;2.50;;;26.60;67.10;;;;;;5013964;28;20448;-67
2022/06/21 07:38:36;;;;;;;4.03;1.80;;;26.30;68.30;;;;;;5013818;28;20904;-67
2022/06/21 07:41:08;;;;;;;2.83;1.97;;;26.00;71.80;;;;;;5014032;28;20476;-67
2022/06/21 07:43:41;;;;;;;3.27;2.20;;;25.60;76.20;;;;;;5014141;28;20460;-67
2022/06/21 07:46:10;;;;;;;2.10;1.87;;;25.30;78.00;;;;;;5013976;28;20456;-66
2022/06/21 07:48:42;;;;;;;5.27;2.00;;;25.10;72.30;;;;;;5013973;28;20453;-69
2022/06/21 07:51:14;;;;;;;3.23;2.00;;;24.90;70.10;;;;;;5013999;28;20481;-69
2022/06/21 07:53:45;;;;;;;2.03;1.70;;;24.60;71.30;;;;;;5014174;28;20446;-69
2022/06/21 07:56:17;;;;;;;2.50;2.03;;;24.40;71.00;;;;;;5014061;28;20441;-69
2022/06/21 07:58:55;;;;;;;3.07;2.00;;;24.40;70.00;;;;;;5014197;28;20448;-70
2022/06/21 08:07:08;;;;;;;1.80;1.60;;;25.60;68.20;;;;;;5020514;28;20460;-69
2022/06/21 08:09:43;;;;;;;3.60;1.80;;;26.30;67.30;;;;;;5014022;28;20825;-70
2022/06/21 08:12:11;;;;;;;1.70;1.60;;;26.90;65.20;;;;;;5015846;28;20487;-70
2022/06/21 08:14:38;;;;;;;7.70;1.90;;;27.60;64.30;;;;;;5018097;28;20448;-70
2022/06/21 08:17:13;;;;;;;3.73;1.97;;;28.00;62.40;;;;;;5018204;28;20504;-69
2022/06/21 08:19:47;;;;;;;4.77;2.00;;;28.40;60.40;;;;;;5018500;28;20440;-69
2022/06/21 08:22:19;;;;;;;4.33;1.57;;;28.30;60.10;;;;;;5035375;28;20469;-71
2022/06/21 08:24:52;;;;;;;5.60;1.60;;;28.50;60.90;;;;;;5029754;28;20444;-66
2022/06/21 08:27:25;;;;;;;2.17;1.80;;;28.70;59.20;;;;;;5018095;28;20445;-70
2022/06/21 08:29:56;;;;;;;3.30;1.93;;;28.50;59.20;;;;;;5018005;28;20533;-69
2022/06/21 08:32:32;;;;;;;3.03;2.17;;;28.50;59.80;;;;;;5017836;28;20491;-70
2022/06/21 08:35:06;;;;;;;1.93;1.83;;;28.70;59.20;;;;;;5017779;28;20444;-70
2022/06/21 08:37:39;;;;;;;3.93;2.00;;;29.30;58.60;;;;;;5017763;28;20441;-70
2022/06/21 08:40:25;;;;;;;2.50;1.57;;;29.40;57.50;;;;;;5018231;28;20444;-69
2022/06/21 08:43:29;;;;;;;3.93;1.70;;;29.20;57.90;;;;;;5017353;28;20444;-69
2022/06/21 08:46:27;;;;;;;2.07;1.90;;;29.00;58.30;;;;;;5017393;28;20448;-69
2022/06/21 08:49:24;;;;;;;5.10;2.40;;;28.70;58.50;;;;;;5017391;28;20444;-68
2022/06/21 08:52:24;;;;;;;2.83;2.10;;;28.10;59.20;;;;;;5015967;28;20477;-69
2022/06/21 08:55:01;;;;;;;1.90;1.80;;;27.50;59.60;;;;;;5017273;28;20451;-68
2022/06/21 08:57:37;;;;;;;6.50;2.60;;;27.30;60.40;;;;;;5016897;28;20448;-68
2022/06/21 09:00:09;;;;;;;2.07;1.80;;;27.00;61.50;;;;;;5016888;28;20464;-70
2022/06/21 09:02:47;;;;;;;2.30;2.10;;;27.00;62.20;;;;;;5016809;28;20507;-68
2022/06/21 09:05:30;;;;;;;2.43;2.23;;;27.00;62.30;;;;;;5016715;28;20451;-66
2022/06/21 09:08:18;;;;;;;3.50;2.10;;;27.20;62.20;;;;;;5016714;28;20469;-66
2022/06/21 09:11:03;;;;;;;3.83;2.43;;;27.10;61.20;;;;;;5017371;28;20496;-66
2022/06/21 09:13:58;;;;;;;2.23;1.93;;;26.70;61.50;;;;;;5017118;28;20449;-66
2022/06/21 09:16:31;;;;;;;3.37;2.17;;;26.00;63.70;;;;;;5016174;28;20917;-66
2022/06/21 09:19:09;;;;;;;4.30;2.53;;;25.70;65.00;;;;;;5016268;28;20507;-66
2022/06/21 09:21:47;;;;;;;2.03;1.80;;;25.50;65.60;;;;;;5016259;28;20473;-65
2022/06/21 09:24:29;;;;;;;3.43;2.23;;;25.30;66.10;;;;;;5015621;28;20440;-65
2022/06/21 09:27:02;;;;;;;3.60;2.20;;;25.00;66.90;;;;;;5016068;28;20448;-65
2022/06/21 09:29:35;;;;;;;4.37;2.20;;;24.90;67.60;;;;;;5015990;28;20496;-65
2022/06/21 09:32:17;;;;;;;2.73;2.37;;;24.70;68.00;;;;;;5016084;28;20480;-66
2022/06/21 09:34:55;;;;;;;6.00;1.50;;;24.90;68.60;;;;;;5016229;28;20800;-66
2022/06/21 09:37:31;;;;;;;2.17;2.07;;;25.40;68.30;;;;;;5015991;28;20453;-65
2022/06/21 09:40:10;;;;;;;4.20;2.30;;;25.90;66.00;;;;;;5016218;28;20448;-65
2022/06/21 09:42:43;;;;;;;2.23;1.80;;;26.50;65.50;;;;;;5016083;28;20471;-66
2022/06/21 09:45:19;;;;;;;3.53;2.07;;;26.90;64.80;;;;;;5016017;28;20437;-65
2022/06/21 09:47:55;;;;;;;2.00;1.90;;;27.30;63.50;;;;;;5015807;28;20436;-66
2022/06/21 09:50:31;;;;;;;3.40;2.50;;;27.70;63.50;;;;;;5015987;28;20448;-66
2022/06/21 09:53:05;;;;;;;3.40;2.17;;;28.50;62.10;;;;;;5016055;28;20831;-65
2022/06/21 09:55:43;;;;;;;2.90;2.10;;;29.10;60.30;;;;;;5015853;28;20433;-66
2022/06/21 09:58:18;;;;;;;5.27;2.10;;;29.60;58.80;;;;;;5015870;28;20794;-66
2022/06/21 10:00:50;;;;;;;1.90;1.80;;;30.00;58.70;;;;;;5015495;28;20486;-67
2022/06/21 10:03:31;;;;;;;2.73;2.10;;;30.50;57.80;;;;;;5015668;28;20444;-66
2022/06/21 10:06:06;;;;;;;2.60;2.23;;;31.00;56.70;;;;;;5015514;28;20443;-66
2022/06/21 10:08:57;;;;;;;2.20;2.10;;;31.00;56.70;;;;;;5015484;28;20440;-67
2022/06/21 10:11:36;;;;;;;2.23;2.07;;;31.00;56.00;;;;;;5015266;28;20485;-66
2022/06/21 10:14:27;;;;;;;2.17;1.98;;;31.10;56.20;;;;;;5014385;28;20458;-70
2022/06/21 10:17:13;;;;;;;2.70;1.90;;;31.30;56.90;;;;;;5014854;28;20193;-70
2022/06/21 10:19:49;;;;;;;4.60;2.90;;;31.30;55.10;;;;;;5015710;28;20537;-66
2022/06/21 10:22:30;;;;;;;4.53;2.43;;;31.30;55.80;;;;;;5015746;28;20477;-66
2022/06/21 10:25:34;;;;;;;4.27;2.23;;;31.40;55.70;;;;;;5015480;28;20441;-65
2022/06/21 10:28:21;;;;;;;2.87;2.30;;;31.40;55.80;;;;;;5015538;28;20858;-66
2022/06/21 10:31:02;;;;;;;2.37;2.00;;;31.30;54.90;;;;;;5015521;28;20476;-66
2022/06/21 10:34:05;;;;;;;6.67;2.40;;;31.20;55.80;;;;;;5015418;28;20436;-65
2022/06/21 10:36:56;;;;;;;3.23;2.40;;;31.20;56.20;;;;;;5014022;28;21001;-66
2022/06/21 10:39:44;;;;;;;4.53;2.70;;;31.20;55.50;;;;;;5015557;28;20924;-70
2022/06/21 10:45:28;;;;;;;5.80;2.47;;;31.00;56.90;;;;;;5015177;28;20777;-70
2022/06/21 10:48:23;;;;;;;4.00;2.50;;;31.40;56.50;;;;;;5015308;28;20535;-70
2022/06/21 10:50:56;;;;;;;2.97;2.73;;;31.40;56.50;;;;;;5011491;28;20477;-71
2022/06/21 10:53:40;;;;;;;3.30;3.00;;;31.40;56.40;;;;;;5015021;28;20477;-70
2022/06/21 10:59:12;;;;;;;5.13;2.70;;;31.90;56.60;;;;;;5014632;28;20433;-66
2022/06/21 11:01:45;;;;;;;5.00;2.87;;;32.10;56.60;;;;;;5014002;28;20495;-66
2022/06/21 11:04:34;;;;;;;3.07;2.50;;;32.10;55.40;;;;;;5014550;28;20787;-66
2022/06/21 11:07:08;;;;;;;9.03;3.13;;;32.00;56.60;;;;;;5014490;28;20441;-67
2022/06/21 11:09:42;;;;;;;3.27;2.83;;;32.20;56.30;;;;;;5014507;28;20502;-66
2022/06/21 11:15:10;;;;;;;3.17;2.97;;;31.70;56.70;;;;;;5014097;28;20518;-65
2022/06/21 11:17:47;;;;;;;2.50;2.30;;;31.60;56.60;;;;;;5014375;28;20447;-65
2022/06/21 11:20:22;;;;;;;2.87;2.67;;;31.10;57.90;;;;;;5014122;28;20459;-66
2022/06/21 11:22:58;;;;;;;3.17;2.97;;;30.70;58.40;;;;;;5014143;28;20437;-65
2022/06/21 11:25:35;;;;;;;3.70;3.37;;;30.60;59.40;;;;;;5014008;28;20850;-65
2022/06/21 11:28:14;;;;;;;5.07;2.83;;;30.30;59.00;;;;;;5014237;28;20523;-65
2022/06/21 11:30:50;;;;;;;3.50;3.30;;;29.60;60.60;;;;;;5013980;28;20472;-65
2022/06/21 11:33:29;;;;;;;3.93;3.17;;;29.50;62.90;;;;;;5013910;28;20468;-65
2022/06/21 11:36:03;;;;;;;8.93;3.30;;;29.50;62.70;;;;;;5014100;28;20444;-66
2022/06/21 11:38:43;;;;;;;4.50;3.17;;;29.60;63.70;;;;;;5014102;28;20444;-66
2022/06/21 11:42:04;;;;;;;4.10;3.73;;;29.50;63.80;;;;;;5013807;28;20484;-66
2022/06/21 11:44:12;;;;;;;5.47;3.50;;;29.30;63.20;;;;;;5013609;28;20974;-66
2022/06/21 11:46:45;;;;;;;4.47;4.17;;;29.20;64.30;;;;;;5015040;28;20463;-69
2022/06/21 11:49:38;;;;;;;3.80;3.57;;;29.00;64.80;;;;;;5017911;28;20495;-70
2022/06/21 11:52:36;;;;;;;6.90;4.00;;;28.60;65.40;;;;;;5017790;28;20535;-69
2022/06/21 11:55:16;;;;;;;3.53;3.33;;;28.40;66.20;;;;;;5018740;28;20440;-69
2022/06/21 11:57:49;;;;;;;3.87;3.40;;;28.40;67.60;;;;;;5017558;28;20935;-69
2022/06/21 12:00:25;;;;;;;4.50;3.20;;;28.40;68.00;;;;;;5017382;28;20452;-69
2022/06/21 12:02:56;;;;;;;3.90;3.60;;;28.50;67.30;;;;;;5017992;28;20455;-69
2022/06/21 12:05:38;;;;;;;4.60;3.53;;;28.70;67.50;;;;;;5017715;28;20872;-68
2022/06/21 12:08:10;;;;;;;4.27;3.83;;;29.00;67.50;;;;;;5017633;28;20860;-69
2022/06/21 12:10:48;;;;;;;3.77;3.53;;;29.30;67.90;;;;;;5017488;28;20479;-68
2022/06/21 12:13:34;;;;;;;6.10;3.30;;;29.40;67.00;;;;;;5017436;28;20461;-69
2022/06/21 12:16:21;;;;;;;4.80;4.00;;;29.30;66.70;;;;;;5017539;28;20437;-68
2022/06/21 12:18:52;;;;;;;3.47;3.07;;;29.20;67.00;;;;;;5017595;28;20440;-68
2022/06/21 12:21:25;;;;;;;7.00;3.13;;;29.20;66.30;;;;;;5017585;28;20990;-68
2022/06/21 12:23:56;;;;;;;3.73;3.43;;;29.20;67.70;;;;;;5017448;28;20429;-69
2022/06/21 12:26:24;;;;;;;5.50;3.87;;;29.10;67.60;;;;;;5017426;28;20503;-69
2022/06/21 12:28:53;;;;;;;3.60;3.40;;;29.00;67.60;;;;;;5017691;28;20432;-68
2022/06/21 12:31:24;;;;;;;4.53;3.67;;;28.90;67.30;;;;;;5017580;28;20468;-69
2022/06/21 12:33:55;;;;;;;4.13;3.70;;;28.80;67.50;;;;;;5017686;28;20908;-69
2022/06/21 12:36:35;;;;;;;3.97;3.60;;;28.80;69.80;;;;;;5017215;28;20908;-69
2022/06/21 12:39:10;;;;;;;3.40;3.10;;;28.80;70.20;;;;;;5017537;28;20447;-69
2022/06/21 12:41:59;;;;;;;8.30;3.20;;;28.90;71.80;;;;;;5017474;28;20502;-68
2022/06/21 12:44:38;;;;;;;4.87;3.70;;;28.90;70.80;;;;;;5018179;28;20448;-69
2022/06/21 12:47:19;;;;;;;3.47;3.27;;;29.10;70.80;;;;;;5018250;28;20853;-66
2022/06/21 12:50:16;;;;;;;4.27;3.97;;;29.50;70.40;;;;;;5017083;28;20437;-66
2022/06/21 12:52:54;;;;;;;5.70;3.70;;;29.80;68.90;;;;;;5016929;28;20461;-66
2022/06/21 12:55:30;;;;;;;4.27;3.83;;;29.90;67.10;;;;;;5017040;28;20499;-69
2022/06/21 12:58:09;;;;;;;3.90;3.60;;;30.00;67.90;;;;;;5016072;28;20513;-70
2022/06/21 13:00:49;;;;;;;5.30;3.70;;;30.10;68.00;;;;;;5016633;28;20484;-69
2022/06/21 13:03:48;;;;;;;4.67;4.27;;;30.00;67.90;;;;;;5016782;28;20437;-66
2022/06/21 13:06:51;;;;;;;4.27;3.87;;;30.00;67.60;;;;;;4983309;28;20947;-66
2022/06/21 13:09:43;;;;;;;9.87;4.70;;;29.90;69.00;;;;;;5016489;28;20806;-69
2022/06/21 13:12:24;;;;;;;4.40;4.10;;;29.90;70.50;;;;;;5016365;28;20484;-69
2022/06/21 13:15:18;;;;;;;5.00;3.83;;;29.90;71.40;;;;;;5016148;28;20527;-69
2022/06/21 13:18:31;;;;;;;4.80;4.40;;;29.90;70.80;;;;;;5015791;28;20445;-66
2022/06/21 13:21:09;;;;;;;4.90;3.40;;;30.00;69.50;;;;;;5015997;28;20811;-66
2022/06/21 13:23:45;;;;;;;6.60;3.63;;;30.00;70.50;;;;;;5016110;28;20441;-66
2022/06/21 13:26:24;;;;;;;3.60;3.30;;;30.10;70.70;;;;;;5017058;28;20445;-66
2022/06/21 13:29:05;;;;;;;4.50;3.70;;;30.10;70.50;;;;;;5016205;28;20437;-66
2022/06/21 13:31:39;;;;;;;6.53;4.13;;;30.00;70.90;;;;;;5015945;28;20484;-66
2022/06/21 13:34:20;;;;;;;6.60;3.97;;;30.00;71.60;;;;;;5015824;28;20913;-66
2022/06/21 13:36:50;;;;;;;4.70;3.77;;;30.20;71.50;;;;;;5018563;28;20823;-66
2022/06/21 13:39:35;;;;;;;4.63;4.20;;;30.10;70.40;;;;;;5029972;28;20453;-65
2022/06/21 13:45:01;;;;;;;3.63;3.40;;;30.20;71.30;;;;;;5016201;28;20428;-65
2022/06/21 13:47:32;;;;;;;3.70;3.43;;;30.10;71.40;;;;;;5016000;28;20437;-64
2022/06/21 13:50:11;;;;;;;3.47;3.27;;;30.20;71.30;;;;;;5015889;28;20460;-65
2022/06/21 13:52:43;;;;;;;4.30;3.70;;;30.30;71.30;;;;;;5015072;28;20825;-65
2022/06/21 13:55:18;;;;;;;5.30;3.93;;;30.50;72.10;;;;;;5015761;28;20441;-65
2022/06/21 13:57:53;;;;;;;3.57;3.30;;;30.40;70.70;;;;;;5015690;28;20436;-65
2022/06/21 14:00:30;;;;;;;4.73;3.80;;;30.40;71.60;;;;;;5015387;28;20491;-66
2022/06/21 14:03:07;;;;;;;3.87;3.67;;;30.50;72.10;;;;;;5015555;28;20433;-65
2022/06/21 14:05:38;;;;;;;6.03;3.27;;;30.40;72.30;;;;;;5015131;28;20471;-64
2022/06/21 14:08:11;;;;;;;3.63;3.43;;;30.40;72.10;;;;;;5015344;28;20448;-64
2022/06/21 14:10:43;;;;;;;4.73;3.67;;;30.50;71.20;;;;;;5015046;28;20538;-65
2022/06/21 14:13:19;;;;;;;4.47;4.07;;;30.60;72.50;;;;;;5015303;28;20567;-64
2022/06/21 14:15:51;;;;;;;4.03;3.73;;;30.70;72.10;;;;;;5015828;28;20531;-63
2022/06/21 14:18:21;;;;;;;5.23;3.77;;;30.70;71.40;;;;;;5015270;28;20476;-64
2022/06/21 14:20:55;;;;;;;4.10;3.90;;;30.70;71.90;;;;;;5015556;28;20476;-63
2022/06/21 14:23:28;;;;;;;6.23;3.90;;;30.70;70.20;;;;;;5015133;28;20592;-67
2022/06/21 14:26:02;;;;;;;4.40;3.83;;;30.70;72.70;;;;;;5014910;28;20963;-66
2022/06/21 14:28:35;;;;;;;4.87;4.47;;;30.70;72.20;;;;;;5015197;28;20445;-66
2022/06/21 14:31:05;;;;;;;3.80;3.60;;;30.90;71.50;;;;;;5015059;28;20543;-65
2022/06/21 14:33:39;;;;;;;4.90;3.83;;;30.90;70.30;;;;;;5014845;28;20480;-65
2022/06/21 14:36:10;;;;;;;4.23;4.03;;;30.80;70.00;;;;;;5014604;28;20909;-66
2022/06/21 14:38:45;;;;;;;4.60;4.20;;;30.70;71.90;;;;;;5014922;28;20441;-65
2022/06/21 14:41:16;;;;;;;6.00;4.80;;;30.70;71.80;;;;;;5014821;28;20519;-67
2022/06/21 14:43:51;;;;;;;5.40;5.10;;;30.80;71.30;;;;;;5014818;28;20587;-66
2022/06/21 14:46:26;;;;;;;4.60;4.30;;;30.80;70.40;;;;;;5014306;28;20904;-67
2022/06/21 14:48:57;;;;;;;4.37;4.07;;;30.80;71.70;;;;;;5014823;28;20441;-66
2022/06/21 14:51:33;;;;;;;4.60;4.30;;;30.90;73.00;;;;;;5014654;28;20472;-66
2022/06/21 14:54:36;;;;;;;4.70;4.30;;;30.80;71.70;;;;;;5014397;28;20805;-67
2022/06/21 14:57:26;;;;;;;4.40;4.00;;;30.80;72.00;;;;;;5014192;28;20440;-66
2022/06/21 15:00:10;;;;;;;7.50;4.43;;;30.90;72.20;;;;;;5014650;28;20524;-67
2022/06/21 15:03:04;;;;;;;5.97;3.80;;;30.90;72.30;;;;;;5014463;28;20479;-67
2022/06/21 15:05:55;;;;;;;4.23;3.93;;;30.90;73.20;;;;;;5014088;28;20999;-66
2022/06/21 15:08:35;;;;;;;5.57;4.80;;;30.70;72.80;;;;;;5014266;28;20452;-67
2022/06/21 15:11:07;;;;;;;5.17;4.67;;;30.60;72.40;;;;;;5014673;28;20472;-67
2022/06/21 15:13:43;;;;;;;5.20;4.80;;;30.70;73.00;;;;;;5014517;28;20468;-66
2022/06/21 15:16:17;;;;;;;5.40;4.23;;;30.80;72.70;;;;;;5014503;28;20452;-65
2022/06/21 15:19:00;;;;;;;5.40;4.30;;;30.80;72.30;;;;;;5015765;28;20928;-66
2022/06/21 15:21:35;;;;;;;5.73;4.63;;;30.80;72.10;;;;;;5015611;28;20818;-67
2022/06/21 15:24:10;;;;;;;4.97;4.60;;;30.70;73.40;;;;;;5014826;28;20487;-66
2022/06/21 15:26:43;;;;;;;5.63;4.77;;;30.80;71.10;;;;;;5014728;28;20432;-65
2022/06/21 15:29:15;;;;;;;5.43;4.70;;;30.70;72.30;;;;;;5015383;28;20437;-67
2022/06/21 15:31:54;;;;;;;5.40;4.87;;;30.70;71.20;;;;;;5014898;28;20470;-65
2022/06/21 15:34:27;;;;;;;5.50;4.13;;;30.70;70.50;;;;;;5014561;28;20460;-66
2022/06/21 15:36:58;;;;;;;4.73;4.43;;;30.40;70.50;;;;;;5014005;28;20460;-65
2022/06/21 15:39:32;;;;;;;5.53;4.63;;;30.50;72.00;;;;;;5014269;28;20448;-65
2022/06/21 15:42:05;;;;;;;5.37;4.87;;;30.40;71.50;;;;;;5014377;28;20622;-62
2022/06/21 15:44:49;;;;;;;5.87;4.73;;;30.30;71.80;;;;;;5014486;28;20438;-63
2022/06/21 15:50:20;;;;;;;4.73;4.43;;;30.20;71.90;;;;;;5014958;28;20974;-64
2022/06/21 15:52:59;;;;;;;4.97;4.57;;;30.20;73.00;;;;;;5014340;28;20461;-65
2022/06/21 15:55:33;;;;;;;5.20;4.70;;;30.30;72.90;;;;;;5014443;28;20473;-66
2022/06/21 15:58:06;;;;;;;5.00;4.60;;;30.40;71.30;;;;;;5015461;28;20851;-65
2022/06/21 16:00:40;;;;;;;4.77;4.37;;;30.40;71.40;;;;;;5013961;28;20476;-66
2022/06/21 16:03:17;;;;;;;5.57;5.07;;;30.50;72.10;;;;;;5014450;28;20437;-65
2022/06/21 16:05:51;;;;;;;5.00;4.60;;;30.50;71.10;;;;;;5014023;28;20912;-64
2022/06/21 16:08:20;;;;;;;4.90;4.50;;;30.40;70.80;;;;;;5013618;28;20437;-65
2022/06/21 16:10:48;;;;;;;5.10;4.70;;;30.40;71.20;;;;;;5013763;28;20967;-64
2022/06/21 16:13:18;;;;;;;6.63;4.90;;;30.20;71.90;;;;;;5013467;28;20550;-64
2022/06/21 16:15:48;;;;;;;7.80;5.80;;;30.30;71.70;;;;;;5013105;28;20459;-64
2022/06/21 16:18:21;;;;;;;5.10;4.70;;;30.30;70.90;;;;;;5013874;28;20619;-64
2022/06/21 16:20:49;;;;;;;5.83;5.40;;;30.30;71.80;;;;;;5014213;28;21002;-65
2022/06/21 16:23:28;;;;;;;5.30;4.67;;;30.30;71.40;;;;;;5013405;28;20457;-65
2022/06/21 16:25:59;;;;;;;5.60;4.50;;;30.30;70.60;;;;;;5013621;28;20440;-65
2022/06/21 16:28:33;;;;;;;4.80;4.40;;;30.40;71.30;;;;;;5013325;28;20904;-65
2022/06/21 16:33:57;;;;;;;7.43;4.90;;;30.40;71.90;;;;;;5016188;28;20451;-66
2022/06/21 16:36:33;;;;;;;5.33;4.83;;;30.40;72.20;;;;;;5017730;28;20497;-65
2022/06/21 16:39:03;;;;;;;5.27;4.87;;;30.50;71.50;;;;;;5017140;28;20487;-65
2022/06/21 16:44:24;;;;;;;5.63;4.97;;;30.40;71.10;;;;;;5016820;28;20509;-64
2022/06/21 16:46:55;;;;;;;6.27;4.80;;;30.30;71.00;;;;;;5016651;28;20444;-64
2022/06/21 16:49:29;;;;;;;6.17;4.90;;;30.30;72.30;;;;;;5016612;28;20444;-65
2022/06/21 16:51:56;;;;;;;5.40;4.90;;;30.20;71.50;;;;;;5016495;28;20567;-65
2022/06/21 16:54:30;;;;;;;6.00;4.90;;;30.10;71.10;;;;;;5016106;28;20476;-65
2022/06/21 16:56:58;;;;;;;5.03;4.63;;;30.20;71.90;;;;;;5016203;28;20440;-65
2022/06/21 16:59:26;;;;;;;4.83;4.50;;;30.20;71.80;;;;;;5016430;28;20452;-64
2022/06/21 17:01:56;;;;;;;6.83;5.10;;;30.10;73.20;;;;;;5018391;28;20481;-66
2022/06/21 17:04:27;;;;;;;4.90;4.50;;;30.10;73.10;;;;;;5016434;28;20457;-64
2022/06/21 17:06:58;;;;;;;5.67;5.17;;;30.00;73.30;;;;;;5016348;28;20441;-64
2022/06/21 17:09:27;;;;;;;5.30;4.80;;;29.80;72.90;;;;;;5016731;28;20437;-64
2022/06/21 17:12:10;;;;;;;5.30;4.87;;;29.80;74.10;;;;;;5017056;28;20917;-65
2022/06/21 17:14:56;;;;;;;6.93;4.70;;;29.70;74.10;;;;;;5015867;28;20580;-65
2022/06/21 17:17:27;;;;;;;5.80;4.70;;;29.60;75.30;;;;;;5018909;28;20843;-66
2022/06/21 17:20:05;;;;;;;7.73;5.40;;;29.50;75.40;;;;;;5019173;28;20437;-66
2022/06/21 17:22:38;;;;;;;5.37;4.80;;;29.40;76.10;;;;;;5017835;28;20476;-65
2022/06/21 17:25:07;;;;;;;7.43;5.00;;;29.30;76.20;;;;;;5016991;28;20797;-65
2022/06/21 17:27:41;;;;;;;5.40;4.30;;;29.30;77.40;;;;;;5019171;28;20453;-65
2022/06/21 17:30:13;;;;;;;6.00;5.27;;;29.20;77.10;;;;;;5016621;28;20823;-65
2022/06/21 17:32:49;;;;;;;6.77;4.63;;;29.20;77.70;;;;;;5016649;28;20473;-64
2022/06/21 17:35:28;;;;;;;12.27;5.57;;;29.20;78.20;;;;;;5016240;28;20454;-63
2022/06/21 17:38:01;;;;;;;4.43;4.10;;;29.20;77.80;;;;;;5016112;28;20188;-64
2022/06/21 17:40:37;;;;;;;5.63;5.10;;;29.20;77.90;;;;;;5023344;28;20433;-64
2022/06/21 17:43:13;;;;;;;7.30;4.90;;;29.10;76.70;;;;;;5019044;28;20441;-65
2022/06/21 17:45:43;;;;;;;6.63;4.87;;;29.10;77.10;;;;;;5015463;28;20441;-65
2022/06/21 17:48:16;;;;;;;5.77;4.77;;;29.00;77.80;;;;;;5016988;28;20473;-64
2022/06/21 17:50:47;;;;;;;8.30;4.87;;;29.00;77.10;;;;;;5016280;28;20473;-65
2022/06/21 17:53:19;;;;;;;5.20;4.70;;;29.00;77.50;;;;;;5016266;28;20539;-67
2022/06/21 17:55:50;;;;;;;6.90;5.23;;;29.00;76.90;;;;;;5015728;28;20444;-64
2022/06/21 17:58:24;;;;;;;5.90;4.73;;;29.00;77.50;;;;;;5015744;28;20437;-64